sensor_id;sensor_type;location;lat;lon;timestamp;P1;durP1;ratioP1;P2;durP2;ratioP2
10801;SDS011;5453;50.852;7.102;2022-11-25T00:01:33;4.10;;;1.55;;
10801;SDS011;5453;50.852;7.102;2022-11-25T00:04:05;5.57;;;1.55;;
10801;SDS011;5453;50.852;7.102;2022-11-25T00:06:37;7.00;;;1.95;;
10801;SDS011;5453;50.852;7.102;2022-11-25T00:09:10;5.90;;;1.50;;
10801;SDS011;5453;50.852;7.102;2022-11-25T00:11:42;2.88;;;1.58;;
10801;SDS011;5453;50.852;7.102;2022-11-25T00:14:14;5.40;;;1.50;;
10801;SDS011;5453;50.852;7.102;2022-11-25T00:16:48;8.02;;;2.53;;
10801;SDS011;5453;50.852;7.102;2022-11-25T00:19:20;6.90;;;1.80;;
10801;SDS011;5453;50.852;7.102;2022-11-25T00:21:52;7.95;;;2.13;;
10801;SDS011;5453;50.852;7.102;2022-11-25T00:24:24;4.85;;;1.60;;
10801;SDS011;5453;50.852;7.102;2022-11-25T00:26:57;4.68;;;1.60;;
10801;SDS011;5453;50.852;7.102;2022-11-25T00:29:29;5.00;;;1.83;;
10801;SDS011;5453;50.852;7.102;2022-11-25T00:32:03;8.77;;;1.90;;
10801;SDS011;5453;50.852;7.102;2022-11-25T00:34:36;8.43;;;2.10;;
10801;SDS011;5453;50.852;7.102;2022-11-25T00:37:08;6.82;;;2.00;;
10801;SDS011;5453;50.852;7.102;2022-11-25T00:39:41;6.10;;;2.00;;
10801;SDS011;5453;50.852;7.102;2022-11-25T00:42:13;5.35;;;1.63;;
10801;SDS011;5453;50.852;7.102;2022-11-25T00:45:04;5.57;;;2.00;;
10801;SDS011;5453;50.852;7.102;2022-11-25T00:47:39;8.95;;;2.00;;
10801;SDS011;5453;50.852;7.102;2022-11-25T00:50:11;6.50;;;1.85;;
10801;SDS011;5453;50.852;7.102;2022-11-25T00:52:44;3.80;;;1.90;;
10801;SDS011;5453;50.852;7.102;2022-11-25T00:55:16;5.88;;;1.83;;
10801;SDS011;5453;50.852;7.102;2022-11-25T00:57:48;7.88;;;2.42;;
10801;SDS011;5453;50.852;7.102;2022-11-25T01:00:28;5.68;;;1.70;;
10801;SDS011;5453;50.852;7.102;2022-11-25T01:03:00;4.50;;;1.58;;
10801;SDS011;5453;50.852;7.102;2022-11-25T01:05:33;6.43;;;1.75;;
10801;SDS011;5453;50.852;7.102;2022-11-25T01:08:05;5.80;;;2.08;;
10801;SDS011;5453;50.852;7.102;2022-11-25T01:10:37;7.30;;;1.85;;
10801;SDS011;5453;50.852;7.102;2022-11-25T01:13:09;6.53;;;1.90;;
10801;SDS011;5453;50.852;7.102;2022-11-25T01:15:43;6.93;;;1.90;;
10801;SDS011;5453;50.852;7.102;2022-11-25T01:18:15;6.30;;;1.75;;
10801;SDS011;5453;50.852;7.102;2022-11-25T01:20:47;5.32;;;1.90;;
10801;SDS011;5453;50.852;7.102;2022-11-25T01:23:19;6.13;;;1.83;;
10801;SDS011;5453;50.852;7.102;2022-11-25T01:25:51;4.20;;;1.90;;
10801;SDS011;5453;50.852;7.102;2022-11-25T01:28:24;6.85;;;1.98;;
10801;SDS011;5453;50.852;7.102;2022-11-25T01:31:01;7.15;;;1.83;;
10801;SDS011;5453;50.852;7.102;2022-11-25T01:33:37;5.70;;;1.70;;
10801;SDS011;5453;50.852;7.102;2022-11-25T01:36:11;5.38;;;1.83;;
10801;SDS011;5453;50.852;7.102;2022-11-25T01:38:48;4.80;;;2.00;;
10801;SDS011;5453;50.852;7.102;2022-11-25T01:41:22;5.78;;;2.15;;
10801;SDS011;5453;50.852;7.102;2022-11-25T01:44:04;6.07;;;1.85;;
10801;SDS011;5453;50.852;7.102;2022-11-25T01:46:45;9.00;;;2.03;;
10801;SDS011;5453;50.852;7.102;2022-11-25T01:49:31;4.35;;;1.40;;
10801;SDS011;5453;50.852;7.102;2022-11-25T01:52:13;6.70;;;1.65;;
10801;SDS011;5453;50.852;7.102;2022-11-25T01:54:49;5.45;;;1.50;;
10801;SDS011;5453;50.852;7.102;2022-11-25T01:57:27;8.68;;;2.28;;
10801;SDS011;5453;50.852;7.102;2022-11-25T02:00:05;7.72;;;1.50;;
10801;SDS011;5453;50.852;7.102;2022-11-25T02:02:50;6.97;;;2.20;;
10801;SDS011;5453;50.852;7.102;2022-11-25T02:05:26;5.43;;;1.70;;
10801;SDS011;5453;50.852;7.102;2022-11-25T02:08:07;6.25;;;1.83;;
10801;SDS011;5453;50.852;7.102;2022-11-25T02:10:41;2.85;;;1.48;;
10801;SDS011;5453;50.852;7.102;2022-11-25T02:13:15;4.28;;;1.40;;
10801;SDS011;5453;50.852;7.102;2022-11-25T02:15:47;3.65;;;1.50;;
10801;SDS011;5453;50.852;7.102;2022-11-25T02:18:21;8.00;;;2.15;;
10801;SDS011;5453;50.852;7.102;2022-11-25T02:20:54;7.55;;;2.00;;
10801;SDS011;5453;50.852;7.102;2022-11-25T02:23:30;6.75;;;1.90;;
10801;SDS011;5453;50.852;7.102;2022-11-25T02:26:11;4.57;;;1.88;;
10801;SDS011;5453;50.852;7.102;2022-11-25T02:28:44;3.67;;;1.50;;
10801;SDS011;5453;50.852;7.102;2022-11-25T02:31:18;6.88;;;2.13;;
10801;SDS011;5453;50.852;7.102;2022-11-25T02:33:52;4.38;;;1.70;;
10801;SDS011;5453;50.852;7.102;2022-11-25T02:36:24;4.78;;;1.50;;
10801;SDS011;5453;50.852;7.102;2022-11-25T02:41:36;7.40;;;2.25;;
10801;SDS011;5453;50.852;7.102;2022-11-25T02:44:12;6.32;;;1.58;;
10801;SDS011;5453;50.852;7.102;2022-11-25T02:46:44;7.68;;;1.55;;
10801;SDS011;5453;50.852;7.102;2022-11-25T02:49:16;3.58;;;1.60;;
10801;SDS011;5453;50.852;7.102;2022-11-25T02:51:49;7.97;;;1.88;;
10801;SDS011;5453;50.852;7.102;2022-11-25T02:54:21;4.95;;;1.67;;
10801;SDS011;5453;50.852;7.102;2022-11-25T02:56:54;6.88;;;1.65;;
10801;SDS011;5453;50.852;7.102;2022-11-25T02:59:26;8.57;;;1.92;;
10801;SDS011;5453;50.852;7.102;2022-11-25T03:01:59;5.50;;;1.83;;
10801;SDS011;5453;50.852;7.102;2022-11-25T03:04:32;8.55;;;2.10;;
10801;SDS011;5453;50.852;7.102;2022-11-25T03:07:06;6.30;;;1.63;;
10801;SDS011;5453;50.852;7.102;2022-11-25T03:09:38;4.05;;;1.45;;
10801;SDS011;5453;50.852;7.102;2022-11-25T03:12:12;6.10;;;1.85;;
10801;SDS011;5453;50.852;7.102;2022-11-25T03:14:50;7.80;;;1.58;;
10801;SDS011;5453;50.852;7.102;2022-11-25T03:17:23;4.88;;;1.52;;
10801;SDS011;5453;50.852;7.102;2022-11-25T03:19:58;9.45;;;2.58;;
10801;SDS011;5453;50.852;7.102;2022-11-25T03:22:30;7.53;;;2.05;;
10801;SDS011;5453;50.852;7.102;2022-11-25T03:25:02;10.48;;;1.70;;
10801;SDS011;5453;50.852;7.102;2022-11-25T03:27:36;5.18;;;1.50;;
10801;SDS011;5453;50.852;7.102;2022-11-25T03:30:11;5.15;;;1.50;;
10801;SDS011;5453;50.852;7.102;2022-11-25T03:32:47;5.68;;;1.90;;
10801;SDS011;5453;50.852;7.102;2022-11-25T03:35:19;7.00;;;1.80;;
10801;SDS011;5453;50.852;7.102;2022-11-25T03:37:52;4.07;;;1.50;;
10801;SDS011;5453;50.852;7.102;2022-11-25T03:40:24;4.35;;;1.45;;
10801;SDS011;5453;50.852;7.102;2022-11-25T03:42:58;5.30;;;1.67;;
10801;SDS011;5453;50.852;7.102;2022-11-25T03:45:31;5.20;;;1.55;;
10801;SDS011;5453;50.852;7.102;2022-11-25T03:48:08;4.85;;;1.30;;
10801;SDS011;5453;50.852;7.102;2022-11-25T03:50:40;4.03;;;1.52;;
10801;SDS011;5453;50.852;7.102;2022-11-25T03:53:12;6.85;;;1.10;;
10801;SDS011;5453;50.852;7.102;2022-11-25T03:55:46;3.17;;;1.15;;
10801;SDS011;5453;50.852;7.102;2022-11-25T03:58:23;3.88;;;1.40;;
10801;SDS011;5453;50.852;7.102;2022-11-25T04:00:58;4.35;;;1.50;;
10801;SDS011;5453;50.852;7.102;2022-11-25T04:03:31;3.55;;;1.20;;
10801;SDS011;5453;50.852;7.102;2022-11-25T04:06:03;4.35;;;1.50;;
10801;SDS011;5453;50.852;7.102;2022-11-25T04:08:36;5.30;;;1.42;;
10801;SDS011;5453;50.852;7.102;2022-11-25T04:11:09;2.80;;;1.30;;
10801;SDS011;5453;50.852;7.102;2022-11-25T04:13:47;4.40;;;1.70;;
10801;SDS011;5453;50.852;7.102;2022-11-25T04:16:21;2.25;;;1.05;;
10801;SDS011;5453;50.852;7.102;2022-11-25T04:18:56;3.00;;;1.40;;
10801;SDS011;5453;50.852;7.102;2022-11-25T04:21:28;3.92;;;1.52;;
10801;SDS011;5453;50.852;7.102;2022-11-25T04:24:02;5.32;;;1.63;;
10801;SDS011;5453;50.852;7.102;2022-11-25T04:26:36;6.53;;;1.83;;
10801;SDS011;5453;50.852;7.102;2022-11-25T04:29:10;4.40;;;1.77;;
10801;SDS011;5453;50.852;7.102;2022-11-25T04:31:42;7.68;;;1.63;;
10801;SDS011;5453;50.852;7.102;2022-11-25T04:34:15;5.00;;;1.73;;
10801;SDS011;5453;50.852;7.102;2022-11-25T04:36:49;7.53;;;2.40;;
10801;SDS011;5453;50.852;7.102;2022-11-25T04:39:23;5.72;;;2.40;;
10801;SDS011;5453;50.852;7.102;2022-11-25T04:42:14;7.05;;;2.90;;
10801;SDS011;5453;50.852;7.102;2022-11-25T04:45:05;12.85;;;5.38;;
10801;SDS011;5453;50.852;7.102;2022-11-25T04:47:41;10.55;;;3.78;;
10801;SDS011;5453;50.852;7.102;2022-11-25T04:50:16;9.38;;;3.00;;
10801;SDS011;5453;50.852;7.102;2022-11-25T04:53:03;7.10;;;2.22;;
10801;SDS011;5453;50.852;7.102;2022-11-25T04:55:36;9.38;;;2.30;;
10801;SDS011;5453;50.852;7.102;2022-11-25T04:58:13;5.80;;;1.77;;
10801;SDS011;5453;50.852;7.102;2022-11-25T05:01:09;5.60;;;1.90;;
10801;SDS011;5453;50.852;7.102;2022-11-25T05:03:43;4.75;;;2.00;;
10801;SDS011;5453;50.852;7.102;2022-11-25T05:06:16;6.28;;;2.17;;
10801;SDS011;5453;50.852;7.102;2022-11-25T05:08:49;3.58;;;1.70;;
10801;SDS011;5453;50.852;7.102;2022-11-25T05:11:23;8.05;;;2.05;;
10801;SDS011;5453;50.852;7.102;2022-11-25T05:13:56;9.15;;;2.63;;
10801;SDS011;5453;50.852;7.102;2022-11-25T05:16:29;7.05;;;2.38;;
10801;SDS011;5453;50.852;7.102;2022-11-25T05:19:02;7.22;;;2.50;;
10801;SDS011;5453;50.852;7.102;2022-11-25T05:21:34;10.50;;;2.50;;
10801;SDS011;5453;50.852;7.102;2022-11-25T05:24:07;4.30;;;2.40;;
10801;SDS011;5453;50.852;7.102;2022-11-25T05:26:40;6.10;;;2.63;;
10801;SDS011;5453;50.852;7.102;2022-11-25T05:29:12;5.70;;;2.70;;
10801;SDS011;5453;50.852;7.102;2022-11-25T05:31:46;6.00;;;2.40;;
10801;SDS011;5453;50.852;7.102;2022-11-25T05:34:19;5.22;;;2.25;;
10801;SDS011;5453;50.852;7.102;2022-11-25T05:36:51;5.03;;;2.20;;
10801;SDS011;5453;50.852;7.102;2022-11-25T05:39:24;5.47;;;2.38;;
10801;SDS011;5453;50.852;7.102;2022-11-25T05:45:01;4.93;;;2.25;;
10801;SDS011;5453;50.852;7.102;2022-11-25T05:47:37;5.20;;;1.85;;
10801;SDS011;5453;50.852;7.102;2022-11-25T05:50:10;5.40;;;2.30;;
10801;SDS011;5453;50.852;7.102;2022-11-25T05:52:43;6.32;;;2.20;;
10801;SDS011;5453;50.852;7.102;2022-11-25T05:55:15;6.40;;;2.25;;
10801;SDS011;5453;50.852;7.102;2022-11-25T05:57:50;9.82;;;1.90;;
10801;SDS011;5453;50.852;7.102;2022-11-25T06:00:22;7.45;;;2.45;;
10801;SDS011;5453;50.852;7.102;2022-11-25T06:02:58;9.15;;;2.85;;
10801;SDS011;5453;50.852;7.102;2022-11-25T06:05:33;6.72;;;2.67;;
10801;SDS011;5453;50.852;7.102;2022-11-25T06:08:06;8.25;;;3.47;;
10801;SDS011;5453;50.852;7.102;2022-11-25T06:10:40;7.35;;;2.42;;
10801;SDS011;5453;50.852;7.102;2022-11-25T06:13:12;6.70;;;2.70;;
10801;SDS011;5453;50.852;7.102;2022-11-25T06:15:45;5.95;;;2.30;;
10801;SDS011;5453;50.852;7.102;2022-11-25T06:18:22;7.43;;;2.17;;
10801;SDS011;5453;50.852;7.102;2022-11-25T06:20:55;7.35;;;2.55;;
10801;SDS011;5453;50.852;7.102;2022-11-25T06:23:27;5.30;;;2.00;;
10801;SDS011;5453;50.852;7.102;2022-11-25T06:26:02;4.97;;;2.30;;
10801;SDS011;5453;50.852;7.102;2022-11-25T06:28:39;9.98;;;2.72;;
10801;SDS011;5453;50.852;7.102;2022-11-25T06:31:12;8.00;;;2.95;;
10801;SDS011;5453;50.852;7.102;2022-11-25T06:34:00;6.68;;;2.40;;
10801;SDS011;5453;50.852;7.102;2022-11-25T06:36:33;6.32;;;2.85;;
10801;SDS011;5453;50.852;7.102;2022-11-25T06:39:05;6.88;;;2.70;;
10801;SDS011;5453;50.852;7.102;2022-11-25T06:41:38;9.25;;;2.55;;
10801;SDS011;5453;50.852;7.102;2022-11-25T06:44:11;5.80;;;2.45;;
10801;SDS011;5453;50.852;7.102;2022-11-25T06:46:43;8.82;;;3.22;;
10801;SDS011;5453;50.852;7.102;2022-11-25T06:49:17;7.63;;;3.20;;
10801;SDS011;5453;50.852;7.102;2022-11-25T06:51:49;9.02;;;3.00;;
10801;SDS011;5453;50.852;7.102;2022-11-25T06:54:21;9.27;;;3.20;;
10801;SDS011;5453;50.852;7.102;2022-11-25T06:56:54;6.13;;;2.60;;
10801;SDS011;5453;50.852;7.102;2022-11-25T06:59:26;10.10;;;2.95;;
10801;SDS011;5453;50.852;7.102;2022-11-25T07:01:58;7.30;;;2.30;;
10801;SDS011;5453;50.852;7.102;2022-11-25T07:04:32;7.70;;;2.42;;
10801;SDS011;5453;50.852;7.102;2022-11-25T07:07:05;6.85;;;2.30;;
10801;SDS011;5453;50.852;7.102;2022-11-25T07:09:37;9.65;;;2.28;;
10801;SDS011;5453;50.852;7.102;2022-11-25T07:12:09;5.53;;;2.15;;
10801;SDS011;5453;50.852;7.102;2022-11-25T07:14:42;6.43;;;2.33;;
10801;SDS011;5453;50.852;7.102;2022-11-25T07:17:14;4.70;;;2.10;;
10801;SDS011;5453;50.852;7.102;2022-11-25T07:19:47;6.35;;;2.10;;
10801;SDS011;5453;50.852;7.102;2022-11-25T07:22:19;7.45;;;2.53;;
10801;SDS011;5453;50.852;7.102;2022-11-25T07:24:52;7.28;;;2.13;;
10801;SDS011;5453;50.852;7.102;2022-11-25T07:27:24;6.30;;;2.40;;
10801;SDS011;5453;50.852;7.102;2022-11-25T07:29:56;4.88;;;2.10;;
10801;SDS011;5453;50.852;7.102;2022-11-25T07:32:28;9.30;;;2.20;;
10801;SDS011;5453;50.852;7.102;2022-11-25T07:35:05;10.10;;;2.63;;
10801;SDS011;5453;50.852;7.102;2022-11-25T07:37:38;6.63;;;2.28;;
10801;SDS011;5453;50.852;7.102;2022-11-25T07:40:11;5.28;;;2.20;;
10801;SDS011;5453;50.852;7.102;2022-11-25T07:42:43;4.15;;;1.65;;
10801;SDS011;5453;50.852;7.102;2022-11-25T07:45:15;4.82;;;1.83;;
10801;SDS011;5453;50.852;7.102;2022-11-25T07:47:49;4.57;;;1.67;;
10801;SDS011;5453;50.852;7.102;2022-11-25T07:50:22;4.88;;;1.77;;
10801;SDS011;5453;50.852;7.102;2022-11-25T07:52:55;4.72;;;1.67;;
10801;SDS011;5453;50.852;7.102;2022-11-25T07:55:27;3.72;;;1.92;;
10801;SDS011;5453;50.852;7.102;2022-11-25T07:57:59;3.47;;;1.75;;
10801;SDS011;5453;50.852;7.102;2022-11-25T08:00:31;4.57;;;2.20;;
10801;SDS011;5453;50.852;7.102;2022-11-25T08:03:03;5.22;;;2.03;;
10801;SDS011;5453;50.852;7.102;2022-11-25T08:05:36;5.00;;;2.03;;
10801;SDS011;5453;50.852;7.102;2022-11-25T08:08:08;4.60;;;1.92;;
10801;SDS011;5453;50.852;7.102;2022-11-25T08:10:40;4.18;;;1.85;;
10801;SDS011;5453;50.852;7.102;2022-11-25T08:13:12;5.55;;;2.05;;
10801;SDS011;5453;50.852;7.102;2022-11-25T08:15:44;4.80;;;2.00;;
10801;SDS011;5453;50.852;7.102;2022-11-25T08:18:16;5.95;;;2.60;;
10801;SDS011;5453;50.852;7.102;2022-11-25T08:20:50;7.40;;;2.10;;
10801;SDS011;5453;50.852;7.102;2022-11-25T08:23:22;7.95;;;2.42;;
10801;SDS011;5453;50.852;7.102;2022-11-25T08:25:54;6.85;;;2.10;;
10801;SDS011;5453;50.852;7.102;2022-11-25T08:28:26;5.93;;;2.20;;
10801;SDS011;5453;50.852;7.102;2022-11-25T08:31:01;3.50;;;1.55;;
10801;SDS011;5453;50.852;7.102;2022-11-25T08:33:35;4.60;;;1.83;;
10801;SDS011;5453;50.852;7.102;2022-11-25T08:36:09;3.95;;;1.67;;
10801;SDS011;5453;50.852;7.102;2022-11-25T08:38:41;4.40;;;1.80;;
10801;SDS011;5453;50.852;7.102;2022-11-25T08:41:16;6.95;;;2.33;;
10801;SDS011;5453;50.852;7.102;2022-11-25T08:43:50;3.55;;;2.13;;
10801;SDS011;5453;50.852;7.102;2022-11-25T08:46:23;4.32;;;2.20;;
10801;SDS011;5453;50.852;7.102;2022-11-25T08:48:58;4.68;;;2.00;;
10801;SDS011;5453;50.852;7.102;2022-11-25T08:51:33;4.32;;;2.10;;
10801;SDS011;5453;50.852;7.102;2022-11-25T08:54:07;9.18;;;2.70;;
10801;SDS011;5453;50.852;7.102;2022-11-25T08:56:39;5.50;;;2.35;;
10801;SDS011;5453;50.852;7.102;2022-11-25T08:59:12;6.03;;;2.03;;
10801;SDS011;5453;50.852;7.102;2022-11-25T09:01:44;9.20;;;2.28;;
10801;SDS011;5453;50.852;7.102;2022-11-25T09:04:16;9.07;;;2.55;;
10801;SDS011;5453;50.852;7.102;2022-11-25T09:06:50;7.85;;;2.90;;
10801;SDS011;5453;50.852;7.102;2022-11-25T09:09:22;7.53;;;2.95;;
10801;SDS011;5453;50.852;7.102;2022-11-25T09:11:54;8.40;;;3.30;;
10801;SDS011;5453;50.852;7.102;2022-11-25T09:14:26;7.10;;;2.97;;
10801;SDS011;5453;50.852;7.102;2022-11-25T09:16:58;6.43;;;2.70;;
10801;SDS011;5453;50.852;7.102;2022-11-25T09:19:31;7.18;;;2.38;;
10801;SDS011;5453;50.852;7.102;2022-11-25T09:22:04;5.85;;;2.10;;
10801;SDS011;5453;50.852;7.102;2022-11-25T09:24:37;5.28;;;2.22;;
10801;SDS011;5453;50.852;7.102;2022-11-25T09:27:10;6.63;;;1.85;;
10801;SDS011;5453;50.852;7.102;2022-11-25T09:29:42;5.70;;;2.30;;
10801;SDS011;5453;50.852;7.102;2022-11-25T09:32:15;4.10;;;1.75;;
10801;SDS011;5453;50.852;7.102;2022-11-25T09:34:47;5.82;;;1.85;;
10801;SDS011;5453;50.852;7.102;2022-11-25T09:37:20;5.82;;;2.15;;
10801;SDS011;5453;50.852;7.102;2022-11-25T09:39:52;4.35;;;1.80;;
10801;SDS011;5453;50.852;7.102;2022-11-25T09:42:27;4.13;;;1.80;;
10801;SDS011;5453;50.852;7.102;2022-11-25T09:45:29;5.00;;;2.00;;
10801;SDS011;5453;50.852;7.102;2022-11-25T09:48:29;5.00;;;2.38;;
10801;SDS011;5453;50.852;7.102;2022-11-25T09:51:26;4.50;;;2.38;;
10801;SDS011;5453;50.852;7.102;2022-11-25T09:54:09;4.50;;;2.10;;
10801;SDS011;5453;50.852;7.102;2022-11-25T09:56:47;6.82;;;2.42;;
10801;SDS011;5453;50.852;7.102;2022-11-25T09:59:25;4.32;;;2.00;;
10801;SDS011;5453;50.852;7.102;2022-11-25T10:04:57;4.90;;;1.73;;
10801;SDS011;5453;50.852;7.102;2022-11-25T10:07:39;3.65;;;1.70;;
10801;SDS011;5453;50.852;7.102;2022-11-25T10:10:17;2.60;;;1.40;;
10801;SDS011;5453;50.852;7.102;2022-11-25T10:12:53;2.95;;;1.90;;
10801;SDS011;5453;50.852;7.102;2022-11-25T10:15:28;4.78;;;1.50;;
10801;SDS011;5453;50.852;7.102;2022-11-25T10:18:09;3.17;;;1.60;;
10801;SDS011;5453;50.852;7.102;2022-11-25T10:20:50;2.40;;;1.30;;
10801;SDS011;5453;50.852;7.102;2022-11-25T10:23:23;4.70;;;1.70;;
10801;SDS011;5453;50.852;7.102;2022-11-25T10:26:02;3.38;;;1.20;;
10801;SDS011;5453;50.852;7.102;2022-11-25T10:28:45;2.25;;;1.23;;
10801;SDS011;5453;50.852;7.102;2022-11-25T10:31:27;3.08;;;1.33;;
10801;SDS011;5453;50.852;7.102;2022-11-25T10:34:08;5.20;;;1.67;;
10801;SDS011;5453;50.852;7.102;2022-11-25T10:36:47;4.57;;;1.90;;
10801;SDS011;5453;50.852;7.102;2022-11-25T10:39:21;4.53;;;1.73;;
10801;SDS011;5453;50.852;7.102;2022-11-25T10:41:58;2.95;;;1.50;;
10801;SDS011;5453;50.852;7.102;2022-11-25T10:44:37;3.35;;;1.50;;
10801;SDS011;5453;50.852;7.102;2022-11-25T10:47:14;4.32;;;1.30;;
10801;SDS011;5453;50.852;7.102;2022-11-25T10:50:10;3.45;;;1.40;;
10801;SDS011;5453;50.852;7.102;2022-11-25T10:52:49;4.38;;;1.38;;
10801;SDS011;5453;50.852;7.102;2022-11-25T10:55:28;2.13;;;1.40;;
10801;SDS011;5453;50.852;7.102;2022-11-25T10:58:18;5.22;;;1.52;;
10801;SDS011;5453;50.852;7.102;2022-11-25T11:01:04;4.20;;;1.40;;
10801;SDS011;5453;50.852;7.102;2022-11-25T11:03:45;2.53;;;1.10;;
10801;SDS011;5453;50.852;7.102;2022-11-25T11:06:29;3.10;;;0.90;;
10801;SDS011;5453;50.852;7.102;2022-11-25T11:09:03;3.90;;;0.80;;
10801;SDS011;5453;50.852;7.102;2022-11-25T11:11:38;1.98;;;0.80;;
10801;SDS011;5453;50.852;7.102;2022-11-25T11:14:20;2.85;;;1.00;;
10801;SDS011;5453;50.852;7.102;2022-11-25T11:16:55;2.53;;;0.75;;
10801;SDS011;5453;50.852;7.102;2022-11-25T11:19:29;1.83;;;0.57;;
10801;SDS011;5453;50.852;7.102;2022-11-25T11:22:13;2.78;;;0.80;;
10801;SDS011;5453;50.852;7.102;2022-11-25T11:24:47;1.48;;;0.70;;
10801;SDS011;5453;50.852;7.102;2022-11-25T11:27:37;1.55;;;0.60;;
10801;SDS011;5453;50.852;7.102;2022-11-25T11:30:13;3.22;;;0.85;;
10801;SDS011;5453;50.852;7.102;2022-11-25T11:32:53;1.83;;;0.82;;
10801;SDS011;5453;50.852;7.102;2022-11-25T11:38:26;2.47;;;0.68;;
10801;SDS011;5453;50.852;7.102;2022-11-25T11:41:06;4.13;;;0.93;;
10801;SDS011;5453;50.852;7.102;2022-11-25T11:43:48;2.03;;;1.00;;
10801;SDS011;5453;50.852;7.102;2022-11-25T11:46:35;3.05;;;1.00;;
10801;SDS011;5453;50.852;7.102;2022-11-25T11:49:29;1.35;;;0.77;;
10801;SDS011;5453;50.852;7.102;2022-11-25T11:52:36;3.83;;;0.93;;
10801;SDS011;5453;50.852;7.102;2022-11-25T11:55:24;5.32;;;1.25;;
10801;SDS011;5453;50.852;7.102;2022-11-25T11:58:12;4.00;;;1.10;;
10801;SDS011;5453;50.852;7.102;2022-11-25T12:00:55;3.47;;;0.82;;
10801;SDS011;5453;50.852;7.102;2022-11-25T12:03:37;2.55;;;1.00;;
10801;SDS011;5453;50.852;7.102;2022-11-25T12:06:14;4.25;;;0.88;;
10801;SDS011;5453;50.852;7.102;2022-11-25T12:08:49;3.63;;;1.20;;
10801;SDS011;5453;50.852;7.102;2022-11-25T12:11:26;4.10;;;1.00;;
10801;SDS011;5453;50.852;7.102;2022-11-25T12:14:05;6.85;;;1.45;;
10801;SDS011;5453;50.852;7.102;2022-11-25T12:16:56;3.63;;;1.10;;
10801;SDS011;5453;50.852;7.102;2022-11-25T12:19:35;6.32;;;1.55;;
10801;SDS011;5453;50.852;7.102;2022-11-25T12:22:16;12.15;;;1.75;;
10801;SDS011;5453;50.852;7.102;2022-11-25T12:24:52;4.13;;;1.15;;
10801;SDS011;5453;50.852;7.102;2022-11-25T12:27:37;4.95;;;1.25;;
10801;SDS011;5453;50.852;7.102;2022-11-25T12:30:13;5.55;;;1.00;;
10801;SDS011;5453;50.852;7.102;2022-11-25T12:32:50;2.72;;;1.10;;
10801;SDS011;5453;50.852;7.102;2022-11-25T12:35:39;6.13;;;1.30;;
10801;SDS011;5453;50.852;7.102;2022-11-25T12:38:26;5.60;;;1.00;;
10801;SDS011;5453;50.852;7.102;2022-11-25T12:41:11;3.75;;;0.93;;
10801;SDS011;5453;50.852;7.102;2022-11-25T12:43:54;2.33;;;0.95;;
10801;SDS011;5453;50.852;7.102;2022-11-25T12:46:33;2.03;;;0.77;;
10801;SDS011;5453;50.852;7.102;2022-11-25T12:49:13;3.67;;;1.15;;
10801;SDS011;5453;50.852;7.102;2022-11-25T12:55:02;4.78;;;1.00;;
10801;SDS011;5453;50.852;7.102;2022-11-25T13:01:19;4.53;;;1.20;;
10801;SDS011;5453;50.852;7.102;2022-11-25T13:07:52;2.78;;;0.80;;
10801;SDS011;5453;50.852;7.102;2022-11-25T13:10:51;7.38;;;1.63;;
10801;SDS011;5453;50.852;7.102;2022-11-25T13:13:54;2.10;;;0.88;;
10801;SDS011;5453;50.852;7.102;2022-11-25T13:16:35;5.35;;;1.05;;
10801;SDS011;5453;50.852;7.102;2022-11-25T13:19:07;4.95;;;1.08;;
10801;SDS011;5453;50.852;7.102;2022-11-25T13:21:54;5.70;;;1.35;;
10801;SDS011;5453;50.852;7.102;2022-11-25T13:24:33;2.92;;;0.85;;
10801;SDS011;5453;50.852;7.102;2022-11-25T13:27:16;6.45;;;1.15;;
10801;SDS011;5453;50.852;7.102;2022-11-25T13:30:01;3.67;;;1.10;;
10801;SDS011;5453;50.852;7.102;2022-11-25T13:32:36;2.17;;;0.77;;
10801;SDS011;5453;50.852;7.102;2022-11-25T13:38:36;7.07;;;1.20;;
10801;SDS011;5453;50.852;7.102;2022-11-25T13:41:35;3.58;;;1.20;;
10801;SDS011;5453;50.852;7.102;2022-11-25T13:44:19;3.58;;;0.90;;
10801;SDS011;5453;50.852;7.102;2022-11-25T13:46:57;5.00;;;1.27;;
10801;SDS011;5453;50.852;7.102;2022-11-25T13:49:49;2.88;;;0.90;;
10801;SDS011;5453;50.852;7.102;2022-11-25T13:52:33;4.18;;;0.90;;
10801;SDS011;5453;50.852;7.102;2022-11-25T14:01:32;9.55;;;1.75;;
10801;SDS011;5453;50.852;7.102;2022-11-25T14:04:05;6.18;;;1.40;;
10801;SDS011;5453;50.852;7.102;2022-11-25T14:06:48;5.97;;;1.10;;
10801;SDS011;5453;50.852;7.102;2022-11-25T14:09:41;3.67;;;0.82;;
10801;SDS011;5453;50.852;7.102;2022-11-25T14:12:40;2.55;;;0.90;;
10801;SDS011;5453;50.852;7.102;2022-11-25T14:15:43;2.40;;;0.80;;
10801;SDS011;5453;50.852;7.102;2022-11-25T14:21:57;2.85;;;0.80;;
10801;SDS011;5453;50.852;7.102;2022-11-25T14:24:43;2.75;;;0.90;;
10801;SDS011;5453;50.852;7.102;2022-11-25T14:27:19;1.90;;;0.70;;
10801;SDS011;5453;50.852;7.102;2022-11-25T14:29:57;2.38;;;0.70;;
10801;SDS011;5453;50.852;7.102;2022-11-25T14:32:35;3.38;;;0.82;;
10801;SDS011;5453;50.852;7.102;2022-11-25T14:35:15;2.78;;;0.85;;
10801;SDS011;5453;50.852;7.102;2022-11-25T14:37:51;2.72;;;0.70;;
10801;SDS011;5453;50.852;7.102;2022-11-25T14:40:30;2.20;;;0.70;;
10801;SDS011;5453;50.852;7.102;2022-11-25T14:43:10;3.03;;;0.55;;
10801;SDS011;5453;50.852;7.102;2022-11-25T14:45:47;2.13;;;0.70;;
10801;SDS011;5453;50.852;7.102;2022-11-25T14:48:39;2.20;;;1.50;;
10801;SDS011;5453;50.852;7.102;2022-11-25T14:51:13;2.75;;;0.65;;
10801;SDS011;5453;50.852;7.102;2022-11-25T14:53:47;0.93;;;0.65;;
10801;SDS011;5453;50.852;7.102;2022-11-25T14:56:21;1.27;;;0.70;;
10801;SDS011;5453;50.852;7.102;2022-11-25T14:58:57;1.75;;;0.60;;
10801;SDS011;5453;50.852;7.102;2022-11-25T15:01:31;1.52;;;0.75;;
10801;SDS011;5453;50.852;7.102;2022-11-25T15:04:06;1.40;;;0.70;;
10801;SDS011;5453;50.852;7.102;2022-11-25T15:06:48;4.50;;;1.10;;
10801;SDS011;5453;50.852;7.102;2022-11-25T15:09:23;1.45;;;0.60;;
10801;SDS011;5453;50.852;7.102;2022-11-25T15:11:57;0.47;;;0.32;;
10801;SDS011;5453;50.852;7.102;2022-11-25T15:14:33;2.03;;;0.50;;
10801;SDS011;5453;50.852;7.102;2022-11-25T15:17:08;2.60;;;0.60;;
10801;SDS011;5453;50.852;7.102;2022-11-25T15:19:55;1.13;;;0.60;;
10801;SDS011;5453;50.852;7.102;2022-11-25T15:22:31;1.90;;;0.65;;
10801;SDS011;5453;50.852;7.102;2022-11-25T15:25:06;1.05;;;0.40;;
10801;SDS011;5453;50.852;7.102;2022-11-25T15:27:42;1.52;;;0.50;;
10801;SDS011;5453;50.852;7.102;2022-11-25T15:30:17;2.25;;;0.85;;
10801;SDS011;5453;50.852;7.102;2022-11-25T15:32:51;1.83;;;0.75;;
10801;SDS011;5453;50.852;7.102;2022-11-25T15:35:25;1.40;;;0.60;;
10801;SDS011;5453;50.852;7.102;2022-11-25T15:37:59;1.10;;;0.60;;
10801;SDS011;5453;50.852;7.102;2022-11-25T15:40:53;2.85;;;1.05;;
10801;SDS011;5453;50.852;7.102;2022-11-25T15:43:26;1.83;;;0.63;;
10801;SDS011;5453;50.852;7.102;2022-11-25T15:46:01;1.90;;;0.80;;
10801;SDS011;5453;50.852;7.102;2022-11-25T15:48:36;2.28;;;0.80;;
10801;SDS011;5453;50.852;7.102;2022-11-25T15:54:14;1.52;;;0.70;;
10801;SDS011;5453;50.852;7.102;2022-11-25T15:56:50;2.53;;;0.73;;
10801;SDS011;5453;50.852;7.102;2022-11-25T15:59:39;3.38;;;1.05;;
10801;SDS011;5453;50.852;7.102;2022-11-25T16:02:50;3.75;;;1.27;;
10801;SDS011;5453;50.852;7.102;2022-11-25T16:05:28;2.53;;;0.98;;
10801;SDS011;5453;50.852;7.102;2022-11-25T16:11:10;0.73;;;0.73;;
10801;SDS011;5453;50.852;7.102;2022-11-25T16:13:47;1.23;;;0.80;;
10801;SDS011;5453;50.852;7.102;2022-11-25T16:16:22;1.83;;;0.90;;
10801;SDS011;5453;50.852;7.102;2022-11-25T16:19:04;2.97;;;1.02;;
10801;SDS011;5453;50.852;7.102;2022-11-25T16:21:49;2.20;;;1.08;;
10801;SDS011;5453;50.852;7.102;2022-11-25T16:24:34;1.88;;;1.00;;
10801;SDS011;5453;50.852;7.102;2022-11-25T16:27:16;2.10;;;1.08;;
10801;SDS011;5453;50.852;7.102;2022-11-25T16:29:53;4.68;;;1.80;;
10801;SDS011;5453;50.852;7.102;2022-11-25T16:32:27;3.60;;;1.55;;
10801;SDS011;5453;50.852;7.102;2022-11-25T16:35:08;4.40;;;1.80;;
10801;SDS011;5453;50.852;7.102;2022-11-25T16:37:44;4.13;;;1.90;;
10801;SDS011;5453;50.852;7.102;2022-11-25T16:40:17;3.65;;;1.63;;